The Florida Keys Marathon Airport
KMTH : now visible

Airfield :











YOU CAN JOIN US ON...

 
LOGIN :

Register | Disclaimer

   EN    FR    IT 

 









Legend :    VFR   Marginal VFR   IFR   Intensive IFR   Very Intensive IFR
Visi :
Ceiling :
>= 8 km
>= 3000ft
5 to 8 km
1000 to 3000 ft
1500m to 5 km
500 to 1000 ft
800 to 1500m
200 to 500 ft
< 800m
< 200 ft
Symbols :   Thunderstorms  Fog  Heavy snow  Heavy precipitations  Wind > 20 kt






- Airport Elevation : 5 ft


KMTH - The Florida Keys Marathon

CURRENT METAR :
  • 110653Z AUTO 14007KT 10SM FEW019 26/23 A3008 RMK AO2 SLP187 T02610233

EXPIRED METARs :
  • 110553Z AUTO 14007KT 10SM FEW018 SCT047 BKN055 26/23 A3010 RMK AO2 SLP190 T02610233 10261 20256 58003
  • 110505Z AUTO 13008KT 10SM SCT019 BKN045 26/23 A3010 RMK AO2 T02610233
  • 110453Z AUTO 13008KT 10SM BKN019 26/24 A3010 RMK AO2 SLP193 T02610239 403000250
  • 110445Z AUTO 13007KT 10SM SCT017 BKN022 26/24 A3010 RMK AO2 T02610239
  • 110429Z AUTO 13008KT 10SM SCT020 26/23 A3010 RMK AO2 T02610233
  • 110405Z AUTO 12006KT 10SM BKN020 BKN026 26/23 A3010 RMK AO2 T02610233

TAF KMTH
Valid from the 11 at 06:00 until the 12 at 06:00 UTC


110540Z 1106/1206 12007KT P6SM SCT020 SCT050 SCT150
FM120000 06007KT P6SM FEW025



MET'MAP, your aeronautical weather chart ! - Copyright ORBIFLY December 2007 - Disclaimer

ORBIFLY MET'MAP TEAM :

Programming & Development : Alexandra Zaïnal
Concept & original design : Baudouin d'Aumeries
Assistance for programming : Marc-Olivier Méhu
Technical & hardware support : Manuel Goepfert

Contact : metmap@orbifly.com




SOURCES & CREDITS :

   NOAA       Earth
Advisory